Terminal Aerodrome Forecast
Issued by NWS Omaha/Valley, NE

Home | Current Version | Previous Version | Text Only | Print | Product List | Glossary Off
Versions: 1 2 3 4 5 6 7 8 9 10 11 12 13 14 15 16 17 18

000
FTUS43 KOAX 151725
TAFOFK
TAF
KOFK 151725Z 1518/1618 17018G27KT P6SM BKN150
     FM160400 18018G26KT P6SM BKN150 WS020/21050KT
     FM161300 22016G26KT P6SM BKN070
     FM161600 28022G32KT P6SM BKN100=

USA.gov is the U.S. government's official web portal to all federal, state and local government web resources and services.